createdAt,value
2023-02-17T00:01:26.018Z,98094.63
2023-02-17T00:03:53.499Z,98100.09
2023-02-17T00:06:22.849Z,98098.47
2023-02-17T00:08:49.865Z,98099.00
2023-02-17T00:11:16.916Z,98098.81
2023-02-17T00:13:44.120Z,98092.44
2023-02-17T00:16:15.849Z,98090.63
2023-02-17T00:18:42.698Z,98083.72
2023-02-17T00:21:16.919Z,98083.13
2023-02-17T00:23:44.269Z,98081.69
2023-02-17T00:26:11.134Z,98073.13
2023-02-17T00:28:38.659Z,98077.31
2023-02-17T00:31:07.656Z,98078.78
2023-02-17T00:33:34.842Z,98071.88
2023-02-17T00:36:07.256Z,98070.38
2023-02-17T00:38:34.729Z,98069.66
2023-02-17T00:41:01.506Z,98061.13
2023-02-17T00:43:30.426Z,98064.03
2023-02-17T00:45:57.282Z,98066.78
2023-02-17T00:48:24.403Z,98062.59
2023-02-17T00:50:51.307Z,98072.44
2023-02-17T00:53:18.117Z,98070.59
2023-02-17T00:55:44.862Z,98072.59
2023-02-17T00:58:11.706Z,98067.16
2023-02-17T01:00:38.474Z,98065.34
2023-02-17T01:03:05.350Z,98065.88
2023-02-17T01:05:32.206Z,98061.16
2023-02-17T01:07:59.114Z,98066.09
2023-02-17T01:10:27.437Z,98067.53
2023-02-17T01:12:54.344Z,98071.34
2023-02-17T01:15:21.907Z,98071.88
2023-02-17T01:17:49.522Z,98065.16
2023-02-17T01:20:16.591Z,98064.81
2023-02-17T01:22:43.442Z,98064.25
2023-02-17T01:25:10.303Z,98066.47
2023-02-17T01:27:37.220Z,98074.63
2023-02-17T01:30:05.439Z,98073.16
2023-02-17T01:32:32.436Z,98072.09
2023-02-17T01:34:59.170Z,98071.53
2023-02-17T01:37:25.973Z,98074.63
2023-02-17T01:39:54.530Z,98068.25
2023-02-17T01:42:21.323Z,98074.44
2023-02-17T01:45:19.537Z,98082.06
2023-02-17T01:47:50.706Z,98079.31
2023-02-17T01:50:19.601Z,98089.28
2023-02-17T01:52:46.633Z,98080.56
2023-02-17T01:55:16.535Z,98079.84
2023-02-17T01:57:44.576Z,98079.84
2023-02-17T02:00:13.169Z,98079.84
2023-02-17T02:02:42.543Z,98075.50
2023-02-17T02:05:13.000Z,98069.31
2023-02-17T02:07:41.762Z,98075.81
2023-02-17T02:10:11.223Z,98076.16
2023-02-17T02:12:40.490Z,98073.59
2023-02-17T02:15:11.309Z,98067.44
2023-02-17T02:17:59.560Z,98067.25
2023-02-17T02:20:45.128Z,98067.97
2023-02-17T02:23:30.106Z,98066.69
2023-02-17T02:26:05.922Z,98061.19
2023-02-17T02:29:14.220Z,98063.19
2023-02-17T02:32:17.488Z,98053.75
2023-02-17T02:35:25.383Z,98047.06
2023-02-17T02:37:55.230Z,98044.47
2023-02-17T02:40:25.296Z,98040.81
2023-02-17T02:42:52.214Z,98035.72
2023-02-17T02:45:19.379Z,98036.59
2023-02-17T02:47:54.651Z,98043.31
2023-02-17T02:50:35.644Z,98040.75
2023-02-17T02:53:09.255Z,98037.31
2023-02-17T02:55:42.741Z,98029.88
2023-02-17T02:58:19.241Z,98025.50
2023-02-17T03:01:17.469Z,98030.75
2023-02-17T03:04:19.052Z,98018.41
2023-02-17T03:06:53.842Z,98026.38
2023-02-17T03:09:23.321Z,98023.28
2023-02-17T03:11:50.500Z,98019.09
2023-02-17T03:14:19.922Z,98014.38
2023-02-17T03:16:47.856Z,98012.38
2023-02-17T03:19:15.811Z,98017.84
2023-02-17T03:21:48.455Z,98005.66
2023-02-17T03:24:15.704Z,98010.06
2023-02-17T03:26:43.314Z,98001.50
2023-02-17T03:29:10.197Z,98000.22
2023-02-17T03:31:37.474Z,97995.13
2023-02-17T03:34:04.407Z,97996.19
2023-02-17T03:36:31.232Z,97995.28
2023-02-17T03:38:58.428Z,97998.72
2023-02-17T03:41:25.490Z,97995.63
2023-02-17T03:43:52.322Z,97996.34
2023-02-17T03:46:19.140Z,97989.47
2023-02-17T03:48:45.868Z,97982.75
2023-02-17T03:51:18.346Z,97979.31
2023-02-17T03:53:45.967Z,97992.53
2023-02-17T03:56:13.837Z,97981.47
2023-02-17T03:58:41.316Z,97980.94
2023-02-17T04:01:09.537Z,97972.59
2023-02-17T04:03:36.931Z,97977.69
2023-02-17T04:06:04.548Z,97981.66
2023-02-17T04:08:31.922Z,97990.75
2023-02-17T04:11:00.477Z,97988.03
2023-02-17T04:13:27.420Z,97995.09
2023-02-17T04:15:54.584Z,97996.53
2023-02-17T04:18:22.525Z,97999.09
2023-02-17T04:20:50.445Z,98006.16
2023-02-17T04:23:17.946Z,97997.81
2023-02-17T04:25:45.022Z,97997.47
2023-02-17T04:28:13.472Z,98005.47
2023-02-17T04:30:40.496Z,98011.44
2023-02-17T04:33:07.267Z,98008.22
2023-02-17T04:35:33.995Z,98018.00
2023-02-17T04:38:00.846Z,98003.34
2023-02-17T04:40:27.538Z,98000.78
2023-02-17T04:42:54.280Z,98003.44
2023-02-17T04:45:21.073Z,97995.28
2023-02-17T04:47:47.900Z,98002.53
2023-02-17T04:50:14.603Z,98012.88
2023-02-17T04:52:41.345Z,98003.81
2023-02-17T04:55:08.797Z,98010.94
2023-02-17T04:57:35.613Z,98006.56
2023-02-17T05:00:02.561Z,98014.38
2023-02-17T05:02:30.495Z,98015.50
2023-02-17T05:04:57.495Z,98021.31
2023-02-17T05:07:24.401Z,98019.31
2023-02-17T05:09:51.016Z,98023.28
2023-02-17T05:12:17.835Z,98020.94
2023-02-17T05:14:44.544Z,98019.84
2023-02-17T05:17:11.405Z,98014.00
2023-02-17T05:19:38.060Z,98022.72
2023-02-17T05:22:04.790Z,98013.66
2023-02-17T05:24:31.582Z,98022.88
2023-02-17T05:26:58.729Z,98017.25
2023-02-17T05:29:25.458Z,98019.97
2023-02-17T05:31:52.239Z,98016.72
2023-02-17T05:34:18.987Z,98010.72
2023-02-17T05:36:45.759Z,98025.44
2023-02-17T05:39:12.830Z,98027.75
2023-02-17T05:41:39.583Z,98038.25
2023-02-17T05:44:06.351Z,98032.25
2023-02-17T05:46:33.135Z,98029.13
2023-02-17T05:48:59.840Z,98040.22
2023-02-17T05:51:26.554Z,98034.63
2023-02-17T05:53:53.194Z,98051.88
2023-02-17T05:56:20.190Z,98050.25
2023-02-17T05:58:46.973Z,98045.84
2023-02-17T06:01:13.785Z,98052.41
2023-02-17T06:03:40.574Z,98045.16
2023-02-17T06:06:08.051Z,98051.69
2023-02-17T06:08:35.380Z,98052.75
2023-02-17T06:11:02.343Z,98052.75
2023-02-17T06:13:29.160Z,98064.75
2023-02-17T06:15:55.929Z,98060.00
2023-02-17T06:18:22.828Z,98061.28
2023-02-17T06:20:49.631Z,98067.97
2023-02-17T06:23:16.711Z,98055.06
2023-02-17T06:25:43.439Z,98062.50
2023-02-17T06:28:10.293Z,98062.38
2023-02-17T06:30:36.956Z,98062.03
2023-02-17T06:33:03.807Z,98061.84
2023-02-17T06:35:30.438Z,98067.47
2023-02-17T06:37:57.227Z,98060.97
2023-02-17T06:40:24.591Z,98057.72
2023-02-17T06:42:51.388Z,98066.22
2023-02-17T06:45:18.218Z,98060.75
2023-02-17T06:47:44.989Z,98068.41
2023-02-17T06:50:11.925Z,98069.16
2023-02-17T06:52:39.086Z,98069.16
2023-02-17T06:55:06.229Z,98066.78
2023-02-17T06:57:32.959Z,98057.84
2023-02-17T06:59:59.626Z,98064.19
2023-02-17T07:02:26.476Z,98077.25
2023-02-17T07:04:53.169Z,98070.53
2023-02-17T07:07:19.893Z,98079.44
2023-02-17T07:09:46.580Z,98083.09
2023-02-17T07:12:13.428Z,98077.47
2023-02-17T07:14:40.141Z,98079.31
2023-02-17T07:17:06.950Z,98078.75
2023-02-17T07:19:33.646Z,98089.25
2023-02-17T07:22:00.925Z,98089.06
2023-02-17T07:24:27.704Z,98088.88
2023-02-17T07:26:56.158Z,98091.22
2023-02-17T07:29:23.246Z,98092.13
2023-02-17T07:31:50.034Z,98093.03
2023-02-17T07:34:16.758Z,98081.78
2023-02-17T07:36:43.575Z,98073.78
2023-02-17T07:39:10.362Z,98098.47
2023-02-17T07:41:37.168Z,98095.25
2023-02-17T07:44:10.078Z,98106.47
2023-02-17T07:46:39.665Z,98104.06
2023-02-17T07:49:06.491Z,98100.25
2023-02-17T07:51:33.371Z,98106.06
2023-02-17T07:54:01.322Z,98109.72
2023-02-17T07:56:30.071Z,98103.16
2023-02-17T07:58:56.826Z,98107.56
2023-02-17T08:01:24.953Z,98111.31
2023-02-17T08:03:52.571Z,98125.66
2023-02-17T08:06:22.455Z,98126.78
2023-02-17T08:09:08.652Z,98137.53
2023-02-17T08:11:54.415Z,98141.53
2023-02-17T08:14:25.728Z,98142.03
2023-02-17T08:16:52.867Z,98144.75
2023-02-17T08:19:19.903Z,98150.41
2023-02-17T08:21:47.012Z,98143.91
2023-02-17T08:24:14.168Z,98151.56
2023-02-17T08:26:40.931Z,98149.16
2023-02-17T08:29:08.428Z,98142.44
2023-02-17T08:31:36.494Z,98151.19
2023-02-17T08:34:05.821Z,98159.38
2023-02-17T08:36:32.690Z,98164.22
2023-02-17T08:38:59.692Z,98166.94
2023-02-17T08:41:32.692Z,98151.56
2023-02-17T08:44:01.739Z,98149.00
2023-02-17T08:46:29.518Z,98146.50
2023-02-17T08:48:56.898Z,98134.53
2023-02-17T08:51:27.916Z,98135.78
2023-02-17T08:53:57.138Z,98133.06
2023-02-17T08:56:25.159Z,98136.13
2023-02-17T08:58:52.264Z,98138.53
2023-02-17T09:01:19.510Z,98140.91
2023-02-17T09:03:47.984Z,98151.44
2023-02-17T09:06:15.821Z,98165.06
2023-02-17T09:08:43.581Z,98163.78
2023-02-17T09:11:10.636Z,98168.00
2023-02-17T09:13:37.792Z,98152.25
2023-02-17T09:16:05.159Z,98144.47
2023-02-17T09:18:32.320Z,98158.09
2023-02-17T09:21:00.553Z,98155.53
2023-02-17T09:23:27.329Z,98167.84
2023-02-17T09:26:05.736Z,98170.03
2023-02-17T09:28:33.505Z,98177.16
2023-02-17T09:31:11.583Z,98183.50
2023-02-17T09:33:39.378Z,98182.97
2023-02-17T09:36:07.883Z,98173.50
2023-02-17T09:38:35.084Z,98175.31
2023-02-17T09:41:43.170Z,98176.41
2023-02-17T09:44:37.814Z,98182.25
2023-02-17T09:47:10.047Z,98177.34
2023-02-17T09:49:49.621Z,98178.97
2023-02-17T09:52:38.025Z,98171.00
2023-02-17T09:55:05.004Z,98172.47
2023-02-17T09:57:40.206Z,98162.50
2023-02-17T10:00:16.194Z,98154.53
2023-02-17T10:02:48.308Z,98166.53
2023-02-17T10:05:18.990Z,98169.28
2023-02-17T10:07:45.703Z,98169.34
2023-02-17T10:10:18.269Z,98176.44
2023-02-17T10:12:49.305Z,98178.09
2023-02-17T10:15:23.727Z,98182.69
2023-02-17T10:18:08.115Z,98178.84
2023-02-17T10:20:44.642Z,98181.78
2023-02-17T10:23:20.880Z,98190.16
2023-02-17T10:25:56.760Z,98194.34
2023-02-17T10:28:42.422Z,98190.69
2023-02-17T10:31:16.015Z,98191.09
2023-02-17T10:34:03.296Z,98192.19
2023-02-17T10:37:01.902Z,98180.22
2023-02-17T10:39:28.637Z,98194.97
2023-02-17T10:41:55.797Z,98191.13
2023-02-17T10:44:24.002Z,98197.88
2023-02-17T10:46:53.090Z,98196.78
2023-02-17T10:49:32.172Z,98201.16
2023-02-17T10:52:10.287Z,98194.97
2023-02-17T10:54:44.249Z,98190.47
2023-02-17T10:57:13.817Z,98190.84
2023-02-17T10:59:43.976Z,98182.13
2023-02-17T11:02:21.458Z,98190.69
2023-02-17T11:04:50.556Z,98175.03
2023-02-17T11:07:20.060Z,98177.78
2023-02-17T11:09:49.720Z,98177.22
2023-02-17T11:12:27.136Z,98165.03
2023-02-17T11:14:55.094Z,98169.22
2023-02-17T11:17:34.945Z,98175.41
2023-02-17T11:20:28.108Z,98179.78
2023-02-17T11:23:07.498Z,98190.50
2023-02-17T11:25:37.805Z,98188.69
2023-02-17T11:28:12.468Z,98188.34
2023-02-17T11:30:40.451Z,98182.72
2023-02-17T11:33:14.568Z,98187.28
2023-02-17T11:35:41.801Z,98184.94
2023-02-17T11:38:14.824Z,98186.81
2023-02-17T11:40:41.975Z,98192.63
2023-02-17T11:43:19.053Z,98181.34
2023-02-17T11:45:54.673Z,98177.16
2023-02-17T11:48:49.305Z,98196.44
2023-02-17T11:51:51.255Z,98181.53
2023-02-17T11:54:29.203Z,98183.00
2023-02-17T11:57:11.787Z,98177.72
2023-02-17T12:00:06.493Z,98172.44
2023-02-17T12:03:13.674Z,98168.97
2023-02-17T12:05:59.137Z,98170.97
2023-02-17T12:08:47.727Z,98177.91
2023-02-17T12:11:28.014Z,98173.00
2023-02-17T12:14:42.825Z,98172.25
2023-02-17T12:17:17.054Z,98177.16
2023-02-17T12:19:59.453Z,98187.88
2023-02-17T12:22:55.212Z,98185.16
2023-02-17T12:25:29.137Z,98181.13
2023-02-17T12:28:17.595Z,98185.88
2023-02-17T12:31:00.790Z,98176.06
2023-02-17T12:33:51.936Z,98173.00
2023-02-17T12:36:19.811Z,98173.38
2023-02-17T12:38:53.741Z,98174.63
2023-02-17T12:41:25.749Z,98175.88
2023-02-17T12:44:08.492Z,98170.81
2023-02-17T12:46:40.395Z,98167.72
2023-02-17T12:49:14.664Z,98163.38
2023-02-17T12:51:45.118Z,98153.72
2023-02-17T12:54:18.530Z,98148.44
2023-02-17T12:57:05.393Z,98143.34
2023-02-17T12:59:33.137Z,98135.88
2023-02-17T13:02:16.467Z,98124.59
2023-02-17T13:04:46.326Z,98131.53
2023-02-17T13:07:16.474Z,98127.69
2023-02-17T13:09:46.117Z,98128.41
2023-02-17T13:12:22.107Z,98132.97
2023-02-17T13:14:59.237Z,98126.06
2023-02-17T13:17:32.188Z,98131.50
2023-02-17T13:20:11.054Z,98131.13
2023-02-17T13:22:44.862Z,98130.22
2023-02-17T13:25:14.060Z,98115.31
2023-02-17T13:27:40.935Z,98126.06
2023-02-17T13:30:24.440Z,98136.06
2023-02-17T13:33:27.880Z,98131.88
2023-02-17T13:35:54.744Z,98139.13
2023-02-17T13:38:32.238Z,98134.78
2023-02-17T13:41:04.543Z,98133.69
2023-02-17T13:43:31.568Z,98129.69
2023-02-17T13:46:03.289Z,98135.50
2023-02-17T13:48:32.538Z,98114.03
2023-02-17T13:51:00.622Z,98121.31
2023-02-17T13:53:32.102Z,98100.91
2023-02-17T13:56:07.684Z,98107.84
2023-02-17T13:58:41.899Z,98112.75
2023-02-17T14:01:15.231Z,98114.22
2023-02-17T14:03:47.290Z,98132.97
2023-02-17T14:06:30.608Z,98135.69
2023-02-17T14:08:57.619Z,98136.63
2023-02-17T14:11:28.806Z,98124.56
2023-02-17T14:13:57.474Z,98116.91
2023-02-17T14:16:29.253Z,98118.00
2023-02-17T14:19:10.281Z,98120.75
2023-02-17T14:21:39.606Z,98122.38
2023-02-17T14:24:06.753Z,98123.28
2023-02-17T14:26:59.762Z,98120.03
2023-02-17T14:29:26.707Z,98120.75
2023-02-17T14:31:54.288Z,98127.09
2023-02-17T14:34:21.039Z,98126.38
2023-02-17T14:36:47.785Z,98145.34
2023-02-17T14:39:15.933Z,98146.78
2023-02-17T14:41:43.514Z,98142.78
2023-02-17T14:44:10.321Z,98128.41
2023-02-17T14:46:37.347Z,98131.13
2023-02-17T14:49:04.526Z,98120.41
2023-02-17T14:51:36.769Z,98119.31
2023-02-17T14:54:13.032Z,98123.50
2023-02-17T14:57:04.069Z,98118.03
2023-02-17T14:59:30.852Z,98119.31
2023-02-17T15:01:57.594Z,98119.50
2023-02-17T15:04:24.452Z,98117.66
2023-02-17T15:06:54.318Z,98104.72
2023-02-17T15:09:29.380Z,98122.56
2023-02-17T15:11:56.700Z,98106.19
2023-02-17T15:14:23.461Z,98108.38
2023-02-17T15:16:51.183Z,98115.09
2023-02-17T15:19:20.829Z,98118.38
2023-02-17T15:21:50.534Z,98124.56
2023-02-17T15:24:20.095Z,98124.78
2023-02-17T15:26:48.131Z,98121.84
2023-02-17T15:29:23.120Z,98118.22
2023-02-17T15:31:51.917Z,98130.03
2023-02-17T15:34:20.957Z,98116.22
2023-02-17T15:36:47.973Z,98122.56
2023-02-17T15:39:17.430Z,98128.59
2023-02-17T15:41:46.244Z,98126.22
2023-02-17T15:44:18.721Z,98127.69
2023-02-17T15:46:46.265Z,98137.16
2023-02-17T15:49:13.371Z,98134.25
2023-02-17T15:51:40.171Z,98133.69
2023-02-17T15:54:06.947Z,98138.97
2023-02-17T15:56:43.376Z,98134.97
2023-02-17T15:59:24.742Z,98135.69
2023-02-17T16:01:52.420Z,98134.63
2023-02-17T16:04:19.523Z,98143.16
2023-02-17T16:06:46.314Z,98130.06
2023-02-17T16:09:13.280Z,98140.97
2023-02-17T16:11:49.498Z,98130.94
2023-02-17T16:14:32.396Z,98124.41
2023-02-17T16:16:59.195Z,98128.97
2023-02-17T16:19:26.037Z,98120.22
2023-02-17T16:21:52.805Z,98122.22
2023-02-17T16:24:19.519Z,98124.25
2023-02-17T16:26:46.502Z,98129.50
2023-02-17T16:29:23.120Z,98136.97
2023-02-17T16:31:50.237Z,98118.97
2023-02-17T16:34:20.869Z,98119.69
2023-02-17T16:36:51.127Z,98118.25
2023-02-17T16:39:20.298Z,98131.50
2023-02-17T16:41:48.178Z,98127.84
2023-02-17T16:44:16.564Z,98130.06
2023-02-17T16:46:49.011Z,98131.50
2023-02-17T16:49:33.533Z,98126.78
2023-02-17T16:52:01.080Z,98126.56
2023-02-17T16:54:27.890Z,98126.06
2023-02-17T16:56:55.261Z,98123.31
2023-02-17T16:59:24.209Z,98142.59
2023-02-17T17:01:53.138Z,98145.16
2023-02-17T17:04:20.785Z,98151.53
2023-02-17T17:06:50.124Z,98152.97
2023-02-17T17:09:21.269Z,98168.28
2023-02-17T17:11:48.428Z,98166.09
2023-02-17T17:14:15.399Z,98163.38
2023-02-17T17:16:46.695Z,98174.47
2023-02-17T17:19:13.735Z,98179.91
2023-02-17T17:21:40.411Z,98192.47
2023-02-17T17:24:07.198Z,98191.75
2023-02-17T17:26:40.002Z,98195.94
2023-02-17T17:29:07.866Z,98191.19
2023-02-17T17:31:34.646Z,98191.41
2023-02-17T17:34:01.500Z,98189.00
2023-02-17T17:36:34.813Z,98180.66
2023-02-17T17:39:03.540Z,98181.56
2023-02-17T17:41:30.688Z,98189.00
2023-02-17T17:43:57.978Z,98202.88
2023-02-17T17:46:29.644Z,98195.94
2023-02-17T17:48:58.937Z,98194.09
2023-02-17T17:51:26.964Z,98191.56
2023-02-17T17:53:53.917Z,98195.75
2023-02-17T17:56:26.666Z,98196.47
2023-02-17T17:58:54.071Z,98207.06
2023-02-17T18:01:21.815Z,98206.16
2023-02-17T18:03:50.745Z,98209.78
2023-02-17T18:06:24.465Z,98209.75
2023-02-17T18:08:52.613Z,98213.75
2023-02-17T18:11:21.560Z,98217.03
2023-02-17T18:13:50.777Z,98227.94
2023-02-17T18:16:21.028Z,98236.69
2023-02-17T18:18:48.730Z,98221.56
2023-02-17T18:21:15.579Z,98230.47
2023-02-17T18:23:42.397Z,98238.31
2023-02-17T18:26:11.707Z,98236.50
2023-02-17T18:28:38.946Z,98232.69
2023-02-17T18:31:07.976Z,98228.13
2023-02-17T18:33:34.874Z,98241.97
2023-02-17T18:36:11.887Z,98235.03
2023-02-17T18:38:39.041Z,98234.88
2023-02-17T18:41:06.040Z,98245.25
2023-02-17T18:43:33.088Z,98235.59
2023-02-17T18:45:59.987Z,98246.69
2023-02-17T18:48:26.907Z,98251.63
2023-02-17T18:50:53.614Z,98261.81
2023-02-17T18:53:20.466Z,98268.34
2023-02-17T18:55:47.145Z,98276.31
2023-02-17T18:58:14.664Z,98273.59
2023-02-17T19:00:41.342Z,98280.72
2023-02-17T19:03:08.114Z,98280.16
2023-02-17T19:05:35.221Z,98288.16
2023-02-17T19:08:02.079Z,98289.97
2023-02-17T19:10:28.819Z,98290.19
2023-02-17T19:12:55.576Z,98303.44
2023-02-17T19:15:22.274Z,98294.53
2023-02-17T19:17:49.061Z,98296.16
2023-02-17T19:20:17.168Z,98300.16
2023-02-17T19:22:44.167Z,98297.09
2023-02-17T19:25:10.824Z,98302.19
2023-02-17T19:27:42.082Z,98307.13
2023-02-17T19:30:10.406Z,98307.84
2023-02-17T19:32:37.184Z,98309.84
2023-02-17T19:35:04.383Z,98317.47
2023-02-17T19:37:31.210Z,98311.47
2023-02-17T19:39:59.469Z,98313.69
2023-02-17T19:42:26.182Z,98316.41
2023-02-17T19:44:52.974Z,98313.69
2023-02-17T19:47:19.728Z,98316.41
2023-02-17T19:49:46.437Z,98319.16
2023-02-17T19:52:13.296Z,98317.31
2023-02-17T19:54:40.059Z,98311.13
2023-02-17T19:57:06.847Z,98312.97
2023-02-17T19:59:33.835Z,98314.03
2023-02-17T20:02:00.741Z,98318.03
2023-02-17T20:04:28.025Z,98318.03
2023-02-17T20:06:55.057Z,98330.75
2023-02-17T20:09:22.805Z,98325.28
2023-02-17T20:11:53.044Z,98321.31
2023-02-17T20:14:20.770Z,98315.66
2023-02-17T20:16:48.568Z,98335.31
2023-02-17T20:19:15.835Z,98331.28
2023-02-17T20:21:44.955Z,98329.50
2023-02-17T20:24:13.160Z,98333.47
2023-02-17T20:26:43.236Z,98328.56
2023-02-17T20:29:10.903Z,98330.03
2023-02-17T20:31:38.723Z,98332.22
2023-02-17T20:34:08.033Z,98329.69
2023-02-17T20:36:34.893Z,98331.69
2023-02-17T20:39:01.800Z,98337.69
2023-02-17T20:41:28.612Z,98336.22
2023-02-17T20:43:55.300Z,98333.47
2023-02-17T20:46:24.658Z,98334.97
2023-02-17T20:48:51.894Z,98338.75
2023-02-17T20:51:19.748Z,98338.03
2023-02-17T20:53:46.698Z,98327.13
2023-02-17T20:56:19.797Z,98326.56
2023-02-17T20:58:47.198Z,98325.09
2023-02-17T21:01:14.369Z,98321.66
2023-02-17T21:03:41.375Z,98322.00
2023-02-17T21:06:22.030Z,98326.00
2023-02-17T21:08:51.492Z,98323.09
2023-02-17T21:11:18.474Z,98316.16
2023-02-17T21:13:45.535Z,98312.16
2023-02-17T21:16:14.527Z,98307.97
2023-02-17T21:18:41.477Z,98318.88
2023-02-17T21:21:08.401Z,98310.69
2023-02-17T21:23:35.174Z,98316.16
2023-02-17T21:26:01.868Z,98321.44
2023-02-17T21:28:28.673Z,98313.78
2023-02-17T21:30:55.455Z,98304.66
2023-02-17T21:33:22.326Z,98315.59
2023-02-17T21:35:49.500Z,98318.31
2023-02-17T21:38:16.909Z,98306.88
2023-02-17T21:40:43.565Z,98317.03
2023-02-17T21:43:30.339Z,98315.59
2023-02-17T21:45:57.211Z,98314.31
2023-02-17T21:48:23.966Z,98324.31
2023-02-17T21:50:50.798Z,98312.66
2023-02-17T21:53:17.470Z,98313.41
2023-02-17T21:55:44.280Z,98319.75
2023-02-17T21:58:10.960Z,98319.03
2023-02-17T22:00:37.864Z,98314.84
2023-02-17T22:03:04.509Z,98315.78
2023-02-17T22:05:32.085Z,98316.50
2023-02-17T22:07:58.765Z,98321.25
2023-02-17T22:10:25.506Z,98329.22
2023-02-17T22:12:53.068Z,98321.59
2023-02-17T22:15:19.869Z,98322.50
2023-02-17T22:17:48.031Z,98319.75
2023-02-17T22:20:15.524Z,98319.97
2023-02-17T22:22:42.217Z,98320.69
2023-02-17T22:25:08.977Z,98323.25
2023-02-17T22:27:35.890Z,98328.69
2023-02-17T22:30:03.121Z,98322.69
2023-02-17T22:32:29.906Z,98326.16
2023-02-17T22:34:56.707Z,98304.31
2023-02-17T22:37:23.452Z,98310.31
2023-02-17T22:39:53.761Z,98313.06
2023-02-17T22:42:21.338Z,98315.25
2023-02-17T22:44:48.146Z,98316.50
2023-02-17T22:47:15.411Z,98312.66
2023-02-17T22:49:42.545Z,98305.75
2023-02-17T22:52:10.020Z,98309.41
2023-02-17T22:54:38.600Z,98314.31
2023-02-17T22:57:05.414Z,98308.31
2023-02-17T22:59:32.160Z,98306.31
2023-02-17T23:01:59.650Z,98307.59
2023-02-17T23:04:26.696Z,98309.41
2023-02-17T23:06:53.442Z,98298.47
2023-02-17T23:09:20.244Z,98297.22
2023-02-17T23:11:50.934Z,98292.28
2023-02-17T23:14:26.735Z,98291.75
2023-02-17T23:16:55.808Z,98293.75
2023-02-17T23:19:24.128Z,98294.47
2023-02-17T23:21:54.077Z,98293.03
2023-02-17T23:24:21.786Z,98299.19
2023-02-17T23:26:49.482Z,98293.03
2023-02-17T23:29:17.244Z,98293.75
2023-02-17T23:31:44.325Z,98300.66
2023-02-17T23:34:13.166Z,98309.78
2023-02-17T23:36:41.362Z,98296.69
2023-02-17T23:39:08.456Z,98291.41
2023-02-17T23:41:37.025Z,98293.22
2023-02-17T23:44:04.930Z,98287.00
2023-02-17T23:46:31.718Z,98299.75
2023-02-17T23:48:58.414Z,98292.28
2023-02-17T23:51:25.493Z,98291.56
2023-02-17T23:53:52.182Z,98279.38
2023-02-17T23:56:26.024Z,98280.84
2023-02-17T23:58:52.764Z,98297.22
